createdAt,value
2023-03-03T00:03:10.615Z,13.73
2023-03-03T00:08:14.800Z,25.48
2023-03-03T00:13:23.069Z,19.80
2023-03-03T00:18:33.161Z,23.08
2023-03-03T00:23:39.739Z,17.95
2023-03-03T00:28:48.856Z,18.02
2023-03-03T00:33:55.704Z,19.90
2023-03-03T00:39:19.865Z,19.85
2023-03-03T00:44:44.430Z,20.02
2023-03-03T00:49:48.450Z,20.42
2023-03-03T00:54:52.504Z,19.63
2023-03-03T00:59:58.035Z,20.40
2023-03-03T01:05:02.225Z,21.80
2023-03-03T01:10:07.452Z,22.50
2023-03-03T01:15:15.466Z,18.50
2023-03-03T01:20:20.169Z,22.65
2023-03-03T01:25:24.170Z,22.42
2023-03-03T01:30:29.820Z,22.95
2023-03-03T01:35:36.468Z,21.75
2023-03-03T01:40:41.602Z,22.02
2023-03-03T01:46:56.480Z,19.80
2023-03-03T01:52:04.061Z,21.00
2023-03-03T01:57:14.024Z,24.48
2023-03-03T02:02:20.822Z,22.25
2023-03-03T02:07:28.338Z,19.55
2023-03-03T02:12:37.793Z,21.08
2023-03-03T02:17:43.236Z,20.40
2023-03-03T02:22:53.706Z,22.17
2023-03-03T02:27:59.211Z,18.33
2023-03-03T02:33:03.342Z,20.73
2023-03-03T02:38:20.928Z,20.05
2023-03-03T02:43:32.624Z,16.92
2023-03-03T02:48:36.787Z,18.50
2023-03-03T02:53:40.837Z,18.33
2023-03-03T02:58:46.428Z,17.52
2023-03-03T03:03:50.861Z,18.90
2023-03-03T03:14:03.192Z,21.25
2023-03-03T03:19:08.416Z,20.20
2023-03-03T03:24:14.071Z,18.73
2023-03-03T03:29:24.538Z,19.25
2023-03-03T03:34:28.692Z,16.83
2023-03-03T03:39:34.147Z,16.55
2023-03-03T03:44:39.869Z,17.13
2023-03-03T03:49:43.982Z,15.25
2023-03-03T03:54:49.498Z,17.83
2023-03-03T03:59:55.875Z,14.55
2023-03-03T04:05:00.346Z,14.43
2023-03-03T04:10:04.762Z,17.85
2023-03-03T04:15:26.626Z,18.48
2023-03-03T04:20:32.363Z,16.80
2023-03-03T04:25:36.500Z,13.85
2023-03-03T04:30:50.353Z,18.92
2023-03-03T04:35:56.351Z,15.02
2023-03-03T04:41:00.820Z,14.32
2023-03-03T04:46:10.781Z,17.20
2023-03-03T04:51:16.712Z,17.80
2023-03-03T04:56:22.606Z,14.13
2023-03-03T05:01:28.705Z,13.85
2023-03-03T05:06:33.481Z,19.87
2023-03-03T05:11:37.600Z,15.75
2023-03-03T05:16:43.101Z,17.98
2023-03-03T05:21:47.258Z,17.88
2023-03-03T05:26:51.293Z,13.13
2023-03-03T05:31:56.690Z,14.48
2023-03-03T05:37:00.819Z,12.88
2023-03-03T05:42:05.785Z,17.92
2023-03-03T05:47:11.276Z,15.88
2023-03-03T05:52:15.348Z,15.23
2023-03-03T05:57:19.409Z,13.43
2023-03-03T06:02:24.878Z,14.73
2023-03-03T06:07:29.102Z,15.93
2023-03-03T06:12:33.106Z,17.70
2023-03-03T06:17:38.461Z,16.58
2023-03-03T06:22:42.506Z,12.80
2023-03-03T06:27:46.509Z,13.80
2023-03-03T06:32:51.947Z,20.17
2023-03-03T06:37:55.983Z,15.00
2023-03-03T06:43:00.042Z,20.55
2023-03-03T06:48:06.284Z,18.95
2023-03-03T06:53:14.725Z,20.53
2023-03-03T06:58:21.350Z,16.33
2023-03-03T07:03:30.124Z,15.88
2023-03-03T07:08:34.479Z,16.65
2023-03-03T07:13:44.032Z,17.98
2023-03-03T07:18:54.171Z,20.55
2023-03-03T07:24:00.168Z,18.70
2023-03-03T07:29:18.132Z,16.35
2023-03-03T07:34:28.805Z,15.80
2023-03-03T07:39:39.139Z,15.95
2023-03-03T07:44:45.781Z,14.70
2023-03-03T07:49:53.208Z,13.05
2023-03-03T07:54:59.173Z,14.82
2023-03-03T08:00:54.970Z,12.80
2023-03-03T08:06:01.498Z,14.98
2023-03-03T08:11:06.942Z,18.13
2023-03-03T08:16:32.411Z,24.30
2023-03-03T08:21:37.998Z,29.65
2023-03-03T08:26:42.162Z,21.40
2023-03-03T08:31:46.171Z,23.48
2023-03-03T08:36:51.593Z,25.10
2023-03-03T08:41:55.621Z,25.65
2023-03-03T08:46:59.578Z,18.90
2023-03-03T08:52:05.170Z,16.35
2023-03-03T08:57:09.252Z,11.95
2023-03-03T09:02:13.332Z,12.65
2023-03-03T09:07:19.268Z,10.25
2023-03-03T09:12:31.081Z,9.07
2023-03-03T09:17:36.976Z,10.27
2023-03-03T09:22:42.376Z,9.13
2023-03-03T09:27:46.441Z,10.02
2023-03-03T09:32:50.431Z,10.52
2023-03-03T09:37:56.027Z,9.40
2023-03-03T09:43:06.286Z,14.43
2023-03-03T09:48:34.000Z,7.13
2023-03-03T09:54:05.578Z,8.02
2023-03-03T09:59:27.787Z,5.57
2023-03-03T10:05:01.952Z,7.95
2023-03-03T10:10:31.619Z,7.28
2023-03-03T10:15:45.401Z,8.40
2023-03-03T10:21:06.222Z,7.03
2023-03-03T10:26:38.255Z,6.90
2023-03-03T10:32:28.831Z,10.00
2023-03-03T10:37:47.522Z,21.80
2023-03-03T10:43:31.207Z,9.63
2023-03-03T10:49:07.257Z,10.30
2023-03-03T10:54:30.802Z,9.02
2023-03-03T10:59:55.054Z,7.18
2023-03-03T11:05:19.935Z,26.77
2023-03-03T11:10:39.658Z,11.98
2023-03-03T11:16:02.102Z,6.60
2023-03-03T11:21:17.386Z,7.07
2023-03-03T11:26:40.326Z,5.85
2023-03-03T11:31:50.855Z,8.15
2023-03-03T11:37:05.548Z,6.72
2023-03-03T11:42:22.508Z,11.80
2023-03-03T11:47:34.783Z,8.35
2023-03-03T11:52:46.480Z,7.35
2023-03-03T11:58:00.927Z,7.22
2023-03-03T12:03:22.898Z,10.65
2023-03-03T12:08:53.964Z,4.43
2023-03-03T12:14:01.698Z,8.52
2023-03-03T12:19:20.579Z,4.43
2023-03-03T12:24:37.651Z,6.88
2023-03-03T12:29:51.251Z,4.95
2023-03-03T12:35:13.278Z,4.70
2023-03-03T12:40:22.086Z,4.13
2023-03-03T12:45:42.298Z,5.30
2023-03-03T12:51:01.584Z,4.75
2023-03-03T12:56:09.105Z,6.38
2023-03-03T13:01:28.646Z,6.68
2023-03-03T13:06:40.851Z,8.25
2023-03-03T13:12:00.915Z,6.90
2023-03-03T13:17:19.334Z,4.97
2023-03-03T13:22:39.655Z,10.60
2023-03-03T13:27:47.182Z,6.43
2023-03-03T13:32:57.439Z,7.30
2023-03-03T13:38:06.059Z,7.45
2023-03-03T13:43:20.458Z,6.43
2023-03-03T13:48:48.683Z,8.88
2023-03-03T13:54:07.534Z,7.32
2023-03-03T13:59:23.596Z,6.22
2023-03-03T14:04:39.554Z,7.43
2023-03-03T14:10:03.788Z,6.23
2023-03-03T14:15:20.802Z,15.75
2023-03-03T14:25:55.444Z,10.48
2023-03-03T14:31:03.100Z,10.15
2023-03-03T14:36:16.197Z,7.85
2023-03-03T14:41:40.407Z,9.07
2023-03-03T14:46:45.679Z,4.30
2023-03-03T14:51:51.099Z,12.75
2023-03-03T14:57:02.456Z,6.55
2023-03-03T15:02:33.109Z,8.77
2023-03-03T15:07:38.967Z,5.05
2023-03-03T15:12:44.553Z,3.75
2023-03-03T15:17:59.877Z,6.90
2023-03-03T15:23:39.724Z,2.60
2023-03-03T15:29:02.629Z,1.70
2023-03-03T15:34:24.085Z,2.15
2023-03-03T15:39:36.119Z,3.35
2023-03-03T15:44:56.015Z,1.05
2023-03-03T15:50:25.674Z,1.23
2023-03-03T15:55:52.700Z,23.20
2023-03-03T16:01:10.739Z,1.30
2023-03-03T16:06:26.921Z,2.75
2023-03-03T16:12:00.423Z,2.17
2023-03-03T16:17:21.518Z,1.58
2023-03-03T16:23:23.812Z,1.08
2023-03-03T16:28:39.687Z,0.80
2023-03-03T16:33:52.486Z,1.45
2023-03-03T16:39:06.539Z,3.35
2023-03-03T16:44:24.626Z,4.20
2023-03-03T16:49:38.949Z,1.67
2023-03-03T16:54:50.559Z,5.07
2023-03-03T17:00:09.011Z,3.22
2023-03-03T17:05:28.942Z,2.42
2023-03-03T17:10:38.976Z,6.13
2023-03-03T17:15:55.540Z,2.47
2023-03-03T17:21:03.699Z,4.28
2023-03-03T17:26:24.385Z,3.22
2023-03-03T17:31:39.130Z,2.65
2023-03-03T17:36:58.880Z,1.25
2023-03-03T17:42:12.233Z,2.33
2023-03-03T17:47:29.212Z,1.85
2023-03-03T17:58:21.269Z,3.97
2023-03-03T18:04:11.127Z,1.10
2023-03-03T18:09:32.306Z,1.15
2023-03-03T18:15:36.821Z,5.38
2023-03-03T18:21:08.720Z,4.22
2023-03-03T18:26:38.205Z,2.75
2023-03-03T18:32:01.733Z,3.90
2023-03-03T18:37:11.808Z,3.55
2023-03-03T18:42:37.905Z,2.65
2023-03-03T18:48:10.899Z,2.42
2023-03-03T18:53:27.572Z,1.10
2023-03-03T18:58:42.453Z,3.17
2023-03-03T19:04:20.870Z,6.50
2023-03-03T19:09:57.428Z,1.52
2023-03-03T19:15:02.985Z,2.45
2023-03-03T19:20:14.317Z,0.93
2023-03-03T19:25:25.237Z,4.32
2023-03-03T19:30:47.404Z,3.67
2023-03-03T19:36:19.208Z,3.42
2023-03-03T19:41:42.234Z,2.25
2023-03-03T19:46:58.588Z,6.07
2023-03-03T19:52:10.090Z,1.60
2023-03-03T19:57:35.602Z,5.38
2023-03-03T20:02:57.571Z,2.42
2023-03-03T20:08:07.118Z,3.22
2023-03-03T20:13:26.998Z,3.80
2023-03-03T20:19:10.058Z,7.75
2023-03-03T20:24:38.021Z,6.88
2023-03-03T20:30:05.937Z,4.85
2023-03-03T20:35:27.090Z,8.52
2023-03-03T20:40:38.007Z,6.72
2023-03-03T20:45:52.521Z,8.82
2023-03-03T20:51:07.038Z,8.90
2023-03-03T20:56:17.555Z,6.95
2023-03-03T21:01:33.671Z,18.60
2023-03-03T21:06:42.332Z,5.33
2023-03-03T21:11:46.480Z,6.80
2023-03-03T21:16:51.646Z,7.82
2023-03-03T21:22:00.788Z,5.47
2023-03-03T21:27:28.483Z,8.73
2023-03-03T21:32:39.364Z,4.13
2023-03-03T21:37:50.881Z,12.27
2023-03-03T21:42:57.863Z,9.55
2023-03-03T21:48:03.115Z,10.02
2023-03-03T21:53:08.470Z,19.48
2023-03-03T21:58:12.536Z,9.82
2023-03-03T22:03:18.729Z,6.90
2023-03-03T22:08:24.159Z,8.37
2023-03-03T22:13:28.431Z,11.73
2023-03-03T22:18:32.430Z,13.25
2023-03-03T22:23:37.803Z,8.93
2023-03-03T22:28:44.174Z,7.57
2023-03-03T22:33:49.205Z,10.02
2023-03-03T22:38:54.701Z,9.45
2023-03-03T22:43:58.891Z,16.13
2023-03-03T22:49:03.067Z,7.43
2023-03-03T22:54:08.703Z,9.75
2023-03-03T22:59:12.739Z,12.43
2023-03-03T23:04:16.999Z,9.77
2023-03-03T23:09:22.380Z,15.45
2023-03-03T23:14:26.446Z,11.75
2023-03-03T23:19:30.406Z,6.90
2023-03-03T23:24:35.834Z,10.30
2023-03-03T23:29:40.180Z,11.85
2023-03-03T23:34:44.374Z,9.55
2023-03-03T23:39:50.061Z,12.57
2023-03-03T23:44:54.041Z,9.02
2023-03-03T23:49:58.097Z,12.93
2023-03-03T23:55:03.468Z,9.20
